Terminal Aerodrome Forecast
Issued by NWS

Home | Current Version | Previous Version | Text Only | Print | Product List | Glossary On
Versions: 1 2 3 4 5 6 7 8 9 10 11 12 13 14 15 16 17 18 19 20 21
000
FTUS43 KAPX 032152 AAA
TAFMBL
TAF AMD
KMBL 032152Z 0322/0418 27005KT P6SM OVC005
     FM040300 10002KT 2SM BR OVC005
     FM040900 10002KT 1/2SM FG VV002
     FM041400 11005KT 5SM BR OVC018
      AMD LTD TO CLD VIS AND WIND=

USA.gov is the U.S. government's official web portal to all federal, state and local government web resources and services.